LavenderCAM.net
Leatherhead Weather
 
Leatherhead Weather
 
 





Aviation weather for

London Heathrow (EGLL) and London Gatwick (EGKK)



London Heathrow (EGLL) METAR / Surface Actual
London / Heathrow Airport, United Kingdom (EGLL) 51-29N 000-27W 0M
May 25, 2020 - 10:50 AM EDT / 2020.05.25 1450 UTC
Wind: from the WNW (290 degrees) at 8 MPH (7 KT) (direction variable):0
Visibility: greater than 7 mile(s):0
Temperature: 77 F (25 C)
Dew Point: 39 F (4 C)
Relative Humidity: 25%
Pressure (altimeter): 30.53 in. Hg (1034 hPa)
ob: EGLL 251450Z AUTO 29007KT 240V340 9999 NCD 25/04 Q1034 NOSIG
cycle: 15
London Heathrow (EGLL) TAF / Forecast
2020/05/25 12:06
TAF EGLL 251054Z 2512/2618 24004KT CAVOK 
      TEMPO 2615/2618 36010KT


London Gatwick (EGKK) METAR / Surface Actual
London / Gatwick Airport, United Kingdom (EGKK) 51-09N 000-11W 0M
May 25, 2020 - 10:50 AM EDT / 2020.05.25 1450 UTC
Wind: from the SW (230 degrees) at 10 MPH (9 KT) (direction variable):0
Visibility: greater than 7 mile(s):0
Temperature: 73 F (23 C)
Dew Point: 50 F (10 C)
Relative Humidity: 43%
Pressure (altimeter): 30.53 in. Hg (1034 hPa)
ob: EGKK 251450Z 23009KT 200V260 CAVOK 23/10 Q1034
cycle: 15
London Gatwick (EGKK) TAF / Forecast
2020/05/25 12:09
TAF EGKK 251056Z 2512/2618 VRB05KT 9999 FEW045 
      BECMG 2512/2515 22010KT 
      BECMG 2519/2522 VRB03KT PROB30 2601/2606 8000